Time;durP1;ratioP1;P1;durP2;ratioP2;P2;SDS_P1;SDS_P2;PMS_P1;PMS_P2;Temp;Humidity;BMP_temperature;BMP_pressure;BME280_temperature;BME280_humidity;BME280_pressure;Samples;Min_cycle;Max_cycle;Signal;HPM_P1;HPM_P2
2021/07/11 00:00:28;;;;;;;5.28;2.17;;;;;;;-140.79;100.00;63287.88;5007647;28;20528;-79
2021/07/11 00:02:54;;;;;;;4.45;2.15;;;;;;;-140.79;100.00;63287.88;5007860;28;20057;-78
2021/07/11 00:05:20;;;;;;;4.47;2.03;;;;;;;-140.79;100.00;63287.88;4989842;28;20187;-79
2021/07/11 00:07:46;;;;;;;3.80;2.17;;;;;;;-140.79;100.00;63287.88;5006373;28;20116;-79
2021/07/11 00:10:13;;;;;;;3.45;2.08;;;;;;;-140.79;100.00;63287.88;5006337;28;20040;-79
2021/07/11 00:12:38;;;;;;;4.07;2.00;;;;;;;-140.79;100.00;63287.88;5024156;28;20030;-78
2021/07/11 00:15:06;;;;;;;3.05;2.15;;;;;;;-140.79;100.00;63287.88;5010031;28;20509;-79
2021/07/11 00:17:46;;;;;;;5.30;2.42;;;;;;;-140.79;100.00;63287.88;5010794;28;20029;-79
2021/07/11 00:20:13;;;;;;;5.85;2.38;;;;;;;-140.79;100.00;63287.88;5010153;28;20033;-78
2021/07/11 00:22:38;;;;;;;3.40;2.00;;;;;;;-140.79;100.00;63287.88;5010309;28;20034;-79
2021/07/11 00:25:04;;;;;;;3.22;2.00;;;;;;;-140.79;100.00;63287.88;5010820;28;20459;-80
2021/07/11 00:27:30;;;;;;;3.30;1.92;;;;;;;-140.79;100.00;63287.88;5012553;28;20026;-80
2021/07/11 00:29:55;;;;;;;2.63;2.00;;;;;;;-140.79;100.00;63287.88;5010657;28;20412;-79
2021/07/11 00:32:21;;;;;;;4.40;2.40;;;;;;;-140.79;100.00;63287.88;5009435;28;20497;-78
2021/07/11 00:34:46;;;;;;;3.53;2.33;;;;;;;-140.79;100.00;63287.88;4993123;28;20563;-78
2021/07/11 00:37:12;;;;;;;4.03;1.90;;;;;;;-140.79;100.00;63287.88;5010928;28;20033;-78
2021/07/11 00:39:37;;;;;;;3.75;2.40;;;;;;;-140.79;100.00;63287.88;5010443;28;20022;-78
2021/07/11 00:42:03;;;;;;;3.80;2.20;;;;;;;-140.79;100.00;63287.88;5009483;28;20030;-78
2021/07/11 00:44:28;;;;;;;7.28;2.58;;;;;;;-140.79;100.00;63287.88;5010942;28;20041;-79
2021/07/11 00:46:54;;;;;;;3.47;2.13;;;;;;;-140.79;100.00;63287.88;5009350;28;20111;-79
2021/07/11 00:49:19;;;;;;;5.88;2.80;;;;;;;-140.79;100.00;63287.88;5008798;28;20048;-78
2021/07/11 00:51:45;;;;;;;6.93;3.20;;;;;;;-140.79;100.00;63287.88;5009080;28;20018;-78
2021/07/11 00:54:10;;;;;;;5.30;2.88;;;;;;;-140.79;100.00;63287.88;5009292;28;20029;-77
2021/07/11 00:56:36;;;;;;;3.92;2.40;;;;;;;-140.79;100.00;63287.88;5009184;28;20508;-78
2021/07/11 00:59:01;;;;;;;7.05;2.70;;;;;;;-140.79;100.00;63287.88;5009986;28;20469;-78
2021/07/11 01:01:32;;;;;;;4.25;2.35;;;;;;;-140.79;100.00;63287.88;5008969;28;20512;-79
2021/07/11 01:04:11;;;;;;;3.92;1.80;;;;;;;-140.79;100.00;63287.88;5008967;28;20136;-77
2021/07/11 01:06:39;;;;;;;5.32;2.35;;;;;;;-140.79;100.00;63287.88;5008520;28;20516;-77
2021/07/11 01:09:10;;;;;;;3.95;2.63;;;;;;;-140.79;100.00;63287.88;5009743;28;20065;-78
2021/07/11 01:11:43;;;;;;;3.80;2.40;;;;;;;-140.79;100.00;63287.88;5010249;28;20578;-78
2021/07/11 01:14:08;;;;;;;3.35;2.13;;;;;;;-140.79;100.00;63287.88;5010197;28;20504;-79
2021/07/11 01:16:34;;;;;;;3.25;2.50;;;;;;;-140.79;100.00;63287.88;5010112;28;20056;-78
2021/07/11 01:19:04;;;;;;;4.43;2.50;;;;;;;-140.79;100.00;63287.88;5008465;28;20038;-77
2021/07/11 01:21:30;;;;;;;2.97;2.20;;;;;;;-140.79;100.00;63287.88;5008761;28;20453;-78
2021/07/11 01:24:07;;;;;;;3.03;2.20;;;;;;;-140.79;100.00;63287.88;5008826;28;20025;-79
2021/07/11 01:26:33;;;;;;;5.20;2.40;;;;;;;-140.79;100.00;63287.88;5008305;28;20030;-78
2021/07/11 01:28:58;;;;;;;4.07;2.17;;;;;;;-140.79;100.00;63287.88;4992008;28;20144;-78
2021/07/11 01:31:24;;;;;;;6.18;2.35;;;;;;;-140.79;100.00;63287.88;5008367;28;20497;-78
2021/07/11 01:33:50;;;;;;;5.00;2.50;;;;;;;-140.79;100.00;63287.88;5008212;28;20052;-78
2021/07/11 01:36:16;;;;;;;3.38;2.17;;;;;;;-140.79;100.00;63287.88;4992224;28;20018;-77
2021/07/11 01:38:42;;;;;;;4.32;2.40;;;;;;;-140.79;100.00;63287.88;5008283;28;20034;-78
2021/07/11 01:41:08;;;;;;;4.40;2.40;;;;;;;-140.79;100.00;63287.88;5028611;28;20026;-78
2021/07/11 01:43:34;;;;;;;6.18;2.45;;;;;;;-140.79;100.00;63287.88;5011408;28;20029;-78
2021/07/11 01:46:00;;;;;;;4.78;2.22;;;;;;;-140.79;100.00;63287.88;5027728;28;20029;-78
2021/07/11 01:48:25;;;;;;;5.85;2.60;;;;;;;-140.79;100.00;63287.88;5011169;28;20030;-78
2021/07/11 01:50:52;;;;;;;4.53;2.67;;;;;;;-140.79;100.00;63287.88;5027783;28;20029;-79
2021/07/11 01:53:21;;;;;;;3.30;2.30;;;;;;;-140.79;100.00;63287.88;5011763;28;20025;-77
2021/07/11 01:55:47;;;;;;;3.75;2.40;;;;;;;-140.79;100.00;63287.88;5028082;28;20091;-79
2021/07/11 01:58:12;;;;;;;5.60;2.53;;;;;;;-140.79;100.00;63287.88;5027663;28;20029;-78
2021/07/11 02:00:38;;;;;;;4.50;2.38;;;;;;;-140.79;100.00;63287.88;5011047;28;20479;-78
2021/07/11 02:03:16;;;;;;;5.43;2.50;;;;;;;-140.79;100.00;63287.88;5028891;28;20025;-79
2021/07/11 02:05:42;;;;;;;3.10;2.50;;;;;;;-140.79;100.00;63287.88;5028908;28;20478;-79
2021/07/11 02:08:08;;;;;;;3.28;2.47;;;;;;;-140.79;100.00;63287.88;5027654;28;20032;-78
2021/07/11 02:10:33;;;;;;;5.15;2.50;;;;;;;-140.79;100.00;63287.88;5028351;28;20029;-78
2021/07/11 02:13:06;;;;;;;5.72;2.38;;;;;;;-140.79;100.00;63287.88;5028685;28;20183;-78
2021/07/11 02:15:32;;;;;;;4.53;2.33;;;;;;;-140.79;100.00;63287.88;5010040;28;20025;-78
2021/07/11 02:17:58;;;;;;;3.95;2.50;;;;;;;-140.79;100.00;63287.88;5008603;28;20044;-79
2021/07/11 02:20:24;;;;;;;5.85;2.30;;;;;;;-140.79;100.00;63287.88;5007513;28;20471;-79
2021/07/11 02:22:50;;;;;;;3.85;2.10;;;;;;;-140.79;100.00;63287.88;4991390;28;20100;-79
2021/07/11 02:25:17;;;;;;;5.15;2.63;;;;;;;-140.79;100.00;63287.88;5007708;28;20052;-78
2021/07/11 02:27:52;;;;;;;2.67;2.30;;;;;;;-140.79;100.00;63287.88;5007662;28;20384;-79
2021/07/11 02:30:22;;;;;;;3.83;2.58;;;;;;;-140.79;100.00;63287.88;4991661;28;20091;-78
2021/07/11 02:32:48;;;;;;;4.35;2.42;;;;;;;-140.79;100.00;63287.88;5007569;28;20034;-78
2021/07/11 02:35:14;;;;;;;3.90;2.35;;;;;;;-140.79;100.00;63287.88;5007002;28;20044;-78
2021/07/11 02:37:47;;;;;;;4.18;2.22;;;;;;;-140.79;100.00;63287.88;5007287;28;20038;-78
2021/07/11 02:40:13;;;;;;;3.60;2.20;;;;;;;-140.79;100.00;63287.88;5007159;28;20460;-79
2021/07/11 02:42:38;;;;;;;4.00;2.42;;;;;;;-140.79;100.00;63287.88;4991089;28;20033;-78
2021/07/11 02:45:05;;;;;;;5.60;2.47;;;;;;;-140.79;100.00;63287.88;5008441;28;20546;-79
2021/07/11 02:47:31;;;;;;;5.40;2.30;;;;;;;-140.79;100.00;63287.88;5007033;28;20034;-79
2021/07/11 02:50:01;;;;;;;4.38;2.30;;;;;;;-140.79;100.00;63287.88;4990747;28;20057;-78
2021/07/11 02:52:26;;;;;;;;;;;;;;;-140.79;100.00;63287.88;5007984;28;20136;-79
2021/07/11 02:54:57;;;;;;;6.70;2.50;;;;;;;-140.79;100.00;63287.88;5039922;28;20077;-78
2021/07/11 02:57:25;;;;;;;4.80;2.40;;;;;;;-140.79;100.00;63287.88;5028422;28;20033;-78
2021/07/11 02:59:50;;;;;;;4.28;2.25;;;;;;;-140.79;100.00;63287.88;5010506;28;20117;-79
2021/07/11 03:02:15;;;;;;;4.93;2.47;;;;;;;-140.79;100.00;63287.88;5028191;28;20021;-78
2021/07/11 03:04:41;;;;;;;4.57;2.67;;;;;;;-140.79;100.00;63287.88;5009312;28;20424;-78
2021/07/11 03:07:07;;;;;;;5.80;2.60;;;;;;;-140.79;100.00;63287.88;5026744;28;20033;-78
2021/07/11 03:09:32;;;;;;;4.82;2.50;;;;;;;-140.79;100.00;63287.88;5027371;28;20033;-78
2021/07/11 03:11:58;;;;;;;5.13;2.42;;;;;;;-140.79;100.00;63287.88;5010168;28;20098;-79
2021/07/11 03:14:23;;;;;;;4.32;2.40;;;;;;;-140.79;100.00;63287.88;5026447;28;20040;-78
2021/07/11 03:16:53;;;;;;;3.33;2.53;;;;;;;-140.79;100.00;63287.88;5010494;28;20028;-78
2021/07/11 03:19:19;;;;;;;5.35;2.75;;;;;;;-140.79;100.00;63287.88;5026487;28;20044;-78
2021/07/11 03:21:44;;;;;;;4.45;2.80;;;;;;;-140.79;100.00;63287.88;5009604;28;20041;-78
2021/07/11 03:24:10;;;;;;;4.32;2.80;;;;;;;-140.79;100.00;63287.88;5009654;28;20163;-78
2021/07/11 03:26:36;;;;;;;4.85;2.40;;;;;;;-140.79;100.00;63287.88;5010039;28;20036;-78
2021/07/11 03:29:05;;;;;;;6.20;2.85;;;;;;;-140.79;100.00;63287.88;5006519;28;20038;-78
2021/07/11 03:31:31;;;;;;;4.03;2.67;;;;;;;-140.79;100.00;63287.88;5008010;28;20037;-78
2021/07/11 03:33:56;;;;;;;4.38;2.95;;;;;;;-140.79;100.00;63287.88;5006548;28;20045;-78
2021/07/11 03:36:22;;;;;;;5.05;3.10;;;;;;;-140.79;100.00;63287.88;5007930;28;20064;-79
2021/07/11 03:38:58;;;;;;;5.68;2.95;;;;;;;-140.79;100.00;63287.88;5006829;28;20044;-78
2021/07/11 03:41:29;;;;;;;5.35;2.90;;;;;;;-140.79;100.00;63287.88;5006472;28;20053;-79
2021/07/11 03:43:56;;;;;;;4.38;2.75;;;;;;;-140.79;100.00;63287.88;4990562;28;20030;-78
2021/07/11 03:46:24;;;;;;;5.28;2.67;;;;;;;-140.79;100.00;63287.88;4990880;28;20509;-79
2021/07/11 03:48:56;;;;;;;5.50;3.03;;;;;;;-140.79;100.00;63287.88;4993499;28;20033;-78
2021/07/11 03:51:26;;;;;;;3.50;2.67;;;;;;;-140.79;100.00;63287.88;5010136;28;20523;-79
2021/07/11 03:53:53;;;;;;;4.85;3.13;;;;;;;-140.79;100.00;63287.88;5010418;28;20645;-79
2021/07/11 03:56:19;;;;;;;5.55;3.03;;;;;;;-140.79;100.00;63287.88;5010638;28;20480;-78
2021/07/11 03:58:44;;;;;;;5.03;2.72;;;;;;;-140.79;100.00;63287.88;4993841;28;20496;-79
2021/07/11 04:01:09;;;;;;;4.43;2.92;;;;;;;-140.79;100.00;63287.88;4993807;28;20033;-79
2021/07/11 04:03:36;;;;;;;4.93;2.92;;;;;;;-140.79;100.00;63287.88;4993750;28;20103;-78
2021/07/11 04:06:03;;;;;;;4.82;2.70;;;;;;;-140.79;100.00;63287.88;4993786;28;20046;-78
2021/07/11 04:08:28;;;;;;;4.88;2.97;;;;;;;-140.79;100.00;63287.88;4993945;28;20416;-77
2021/07/11 04:10:57;;;;;;;5.40;2.83;;;;;;;-140.79;100.00;63287.88;5009635;28;20026;-77
2021/07/11 04:13:23;;;;;;;5.18;2.80;;;;;;;-140.79;100.00;63287.88;4994960;28;20025;-77
2021/07/11 04:15:51;;;;;;;3.63;2.70;;;;;;;-140.79;100.00;63287.88;4998172;28;20045;-80
2021/07/11 04:18:17;;;;;;;4.32;2.50;;;;;;;-140.79;100.00;63287.88;5030210;28;20032;-79
2021/07/11 04:20:43;;;;;;;5.10;3.17;;;;;;;-140.79;100.00;63287.88;5013811;28;20029;-77
2021/07/11 04:23:08;;;;;;;6.68;3.17;;;;;;;-140.79;100.00;63287.88;5014163;28;20056;-79
2021/07/11 04:25:39;;;;;;;4.40;2.95;;;;;;;-140.79;100.00;63287.88;5032163;28;20042;-79
2021/07/11 04:28:05;;;;;;;6.80;2.63;;;;;;;-140.79;100.00;63287.88;5025939;28;20021;-79
2021/07/11 04:30:30;;;;;;;4.88;3.10;;;;;;;-140.79;100.00;63287.88;5010497;28;20029;-76
2021/07/11 04:32:56;;;;;;;4.30;2.95;;;;;;;-140.79;100.00;63287.88;4999928;28;20017;-78
2021/07/11 04:35:21;;;;;;;5.35;3.28;;;;;;;-140.79;100.00;63287.88;5025638;28;20088;-78
2021/07/11 04:37:47;;;;;;;7.38;3.28;;;;;;;-140.79;100.00;63287.88;5015499;28;20546;-77
2021/07/11 04:40:13;;;;;;;4.68;3.08;;;;;;;-140.79;100.00;63287.88;5031865;28;20427;-78
2021/07/11 04:42:39;;;;;;;4.72;2.85;;;;;;;-140.79;100.00;63287.88;5031511;28;20032;-77
2021/07/11 04:45:05;;;;;;;6.78;3.05;;;;;;;-140.79;100.00;63287.88;5012704;28;20515;-76
2021/07/11 04:47:30;;;;;;;4.40;3.15;;;;;;;-140.79;100.00;63287.88;5030913;28;20507;-78
2021/07/11 04:49:56;;;;;;;4.50;2.80;;;;;;;-140.79;100.00;63287.88;5031228;28;20021;-77
2021/07/11 04:52:21;;;;;;;4.30;3.50;;;;;;;-140.79;100.00;63287.88;5029683;28;20053;-79
2021/07/11 04:54:47;;;;;;;7.00;3.60;;;;;;;-140.79;100.00;63287.88;5010754;28;20409;-76
2021/07/11 04:57:13;;;;;;;5.93;3.60;;;;;;;-140.79;100.00;63287.88;5016059;28;20037;-80
2021/07/11 04:59:38;;;;;;;6.05;3.80;;;;;;;-140.79;100.00;63287.88;5030662;28;20079;-86
2021/07/11 05:02:04;;;;;;;5.30;3.35;;;;;;;-140.79;100.00;63287.88;5036544;28;20075;-84
2021/07/11 05:04:29;;;;;;;5.25;3.45;;;;;;;-140.79;100.00;63287.88;5035148;28;20068;-94
2021/07/11 05:06:55;;;;;;;5.90;3.90;;;;;;;-140.79;100.00;63287.88;5008480;28;20040;-82
2021/07/11 05:09:20;;;;;;;7.07;3.47;;;;;;;-140.79;100.00;63287.88;5027208;28;20064;-77
2021/07/11 05:11:46;;;;;;;6.40;3.70;;;;;;;-140.79;100.00;63287.88;5020974;28;20060;-76
2021/07/11 05:14:11;;;;;;;6.40;3.92;;;;;;;-140.79;100.00;63287.88;5024519;28;20024;-76
2021/07/11 05:16:37;;;;;;;7.55;4.03;;;;;;;-140.79;100.00;63287.88;5018172;28;20030;-74
2021/07/11 05:19:02;;;;;;;7.45;4.30;;;;;;;-140.79;100.00;63287.88;5023964;28;20045;-74
2021/07/11 05:21:29;;;;;;;5.25;3.70;;;;;;;-140.79;100.00;63287.88;5016373;28;20034;-74
2021/07/11 05:23:56;;;;;;;5.38;3.47;;;;;;;-140.79;100.00;63287.88;5025340;28;20024;-72
2021/07/11 05:26:21;;;;;;;7.25;3.80;;;;;;;-140.79;100.00;63287.88;5025552;28;20048;-76
2021/07/11 05:28:46;;;;;;;5.82;3.85;;;;;;;-140.79;100.00;63287.88;5037798;28;20033;-75
2021/07/11 05:31:12;;;;;;;8.75;4.32;;;;;;;-140.79;100.00;63287.88;5033407;28;20034;-75
2021/07/11 05:33:37;;;;;;;5.35;3.75;;;;;;;-140.79;100.00;63287.88;5025432;28;20100;-77
2021/07/11 05:36:03;;;;;;;5.88;3.80;;;;;;;-140.79;100.00;63287.88;5021947;28;20416;-76
2021/07/11 05:38:29;;;;;;;11.02;4.47;;;;;;;-140.79;100.00;63287.88;5019659;28;20558;-75
2021/07/11 05:40:54;;;;;;;8.43;4.30;;;;;;;-140.79;100.00;63287.88;5024435;28;20026;-75
2021/07/11 05:43:20;;;;;;;10.75;3.72;;;;;;;-140.79;100.00;63287.88;5020121;28;20419;-79
2021/07/11 05:45:45;;;;;;;6.60;4.32;;;;;;;-140.79;100.00;63287.88;5028399;28;20014;-78
2021/07/11 05:48:11;;;;;;;6.22;4.28;;;;;;;-140.79;100.00;63287.88;5017773;28;20496;-78
2021/07/11 05:50:36;;;;;;;6.55;4.20;;;;;;;-140.79;100.00;63287.88;5025219;28;20025;-78
2021/07/11 05:53:02;;;;;;;7.38;4.65;;;;;;;-140.79;100.00;63287.88;5019790;28;20492;-78
2021/07/11 05:55:27;;;;;;;5.90;3.97;;;;;;;-140.79;100.00;63287.88;5018823;28;20064;-78
2021/07/11 05:57:53;;;;;;;9.43;5.13;;;;;;;-140.79;100.00;63287.88;5018478;28;20072;-78
2021/07/11 06:00:18;;;;;;;7.07;4.90;;;;;;;-140.79;100.00;63287.88;5009466;28;20022;-77
2021/07/11 06:02:44;;;;;;;6.22;4.80;;;;;;;-140.79;100.00;63287.88;5021467;28;20108;-77
2021/07/11 06:05:10;;;;;;;9.05;4.90;;;;;;;-140.79;100.00;63287.88;5015121;28;20046;-78
2021/07/11 06:07:35;;;;;;;6.78;4.00;;;;;;;-140.79;100.00;63287.88;5018445;28;20075;-78
2021/07/11 06:10:03;;;;;;;6.70;4.47;;;;;;;-140.79;100.00;63287.88;5013920;28;20071;-78
2021/07/11 06:12:28;;;;;;;5.68;4.35;;;;;;;-140.79;100.00;63287.88;5023449;28;20398;-78
2021/07/11 06:14:55;;;;;;;6.15;4.10;;;;;;;-140.79;100.00;63287.88;5013569;28;20029;-77
2021/07/11 06:17:21;;;;;;;7.53;4.38;;;;;;;-140.79;100.00;63287.88;5026104;28;20036;-77
2021/07/11 06:19:47;;;;;;;7.68;4.60;;;;;;;-140.79;100.00;63287.88;5023274;28;20021;-77
2021/07/11 06:22:12;;;;;;;4.82;3.88;;;;;;;-140.79;100.00;63287.88;5025214;28;20037;-78
2021/07/11 06:24:37;;;;;;;7.50;4.30;;;;;;;-140.79;100.00;63287.88;5025800;28;20037;-78
2021/07/11 06:27:03;;;;;;;4.88;3.67;;;;;;;-140.79;100.00;63287.88;5025748;28;20494;-77
2021/07/11 06:29:28;;;;;;;7.07;4.05;;;;;;;-140.79;100.00;63287.88;5018027;28;20029;-78
2021/07/11 06:31:54;;;;;;;7.93;3.90;;;;;;;-140.79;100.00;63287.88;5025689;28;20025;-78
2021/07/11 06:34:19;;;;;;;6.93;3.85;;;;;;;-140.79;100.00;63287.88;5009909;28;20751;-78
2021/07/11 06:36:45;;;;;;;5.63;3.55;;;;;;;-140.79;100.00;63287.88;5009907;28;20032;-78
2021/07/11 06:39:10;;;;;;;6.95;3.63;;;;;;;-140.79;100.00;63287.88;5023370;28;20032;-78
2021/07/11 06:41:36;;;;;;;6.80;3.95;;;;;;;-140.79;100.00;63287.88;5026256;28;20068;-78
2021/07/11 06:44:01;;;;;;;7.25;3.90;;;;;;;-140.79;100.00;63287.88;5025291;28;20021;-78
2021/07/11 06:46:27;;;;;;;6.28;3.70;;;;;;;-140.79;100.00;63287.88;5028332;28;20025;-78
2021/07/11 06:48:52;;;;;;;7.90;3.70;;;;;;;-140.79;100.00;63287.88;5025241;28;20041;-78
2021/07/11 06:51:18;;;;;;;8.55;3.80;;;;;;;-140.79;100.00;63287.88;5014984;28;20044;-80
2021/07/11 06:53:43;;;;;;;8.23;3.67;;;;;;;-140.79;100.00;63287.88;5015689;28;20030;-75
2021/07/11 06:56:09;;;;;;;6.82;3.47;;;;;;;-140.79;100.00;63287.88;5008156;28;20092;-75
2021/07/11 06:58:34;;;;;;;10.48;3.80;;;;;;;-140.79;100.00;63287.88;5017248;28;20458;-76
2021/07/11 07:00:59;;;;;;;8.57;3.45;;;;;;;-140.79;100.00;63287.88;5008550;28;20033;-77
2021/07/11 07:03:25;;;;;;;5.80;3.47;;;;;;;-140.79;100.00;63287.88;5019205;28;20018;-77
2021/07/11 07:05:51;;;;;;;8.45;3.55;;;;;;;-140.79;100.00;63287.88;5008896;28;20042;-77
2021/07/11 07:08:17;;;;;;;5.05;3.75;;;;;;;-140.79;100.00;63287.88;4996552;28;20037;-77
2021/07/11 07:10:43;;;;;;;5.75;3.83;;;;;;;-140.79;100.00;63287.88;5015312;28;20021;-77
2021/07/11 07:13:08;;;;;;;5.25;3.50;;;;;;;-140.79;100.00;63287.88;5001920;28;20037;-77
2021/07/11 07:15:34;;;;;;;7.25;3.70;;;;;;;-140.79;100.00;63287.88;5007906;28;20018;-77
2021/07/11 07:17:59;;;;;;;5.05;3.33;;;;;;;-140.79;100.00;63287.88;5012528;28;20033;-77
2021/07/11 07:20:25;;;;;;;6.63;3.75;;;;;;;-140.79;100.00;63287.88;5016136;28;20033;-77
2021/07/11 07:22:50;;;;;;;13.00;4.03;;;;;;;-140.79;100.00;63287.88;5023929;28;20037;-76
2021/07/11 07:25:17;;;;;;;7.63;3.50;;;;;;;-140.79;100.00;63287.88;5016347;28;20026;-77
2021/07/11 07:27:42;;;;;;;8.43;3.78;;;;;;;-140.79;100.00;63287.88;4996496;28;20046;-77
2021/07/11 07:30:09;;;;;;;6.60;3.00;;;;;;;-140.79;100.00;63287.88;5001186;28;20020;-76
2021/07/11 07:32:34;;;;;;;4.93;3.33;;;;;;;-140.79;100.00;63287.88;5012795;28;20037;-76
2021/07/11 07:35:00;;;;;;;6.28;3.13;;;;;;;-140.79;100.00;63287.88;4995594;28;20116;-77
2021/07/11 07:37:25;;;;;;;6.03;3.38;;;;;;;-140.79;100.00;63287.88;5006661;28;20034;-77
2021/07/11 07:39:51;;;;;;;6.97;2.95;;;;;;;-140.79;100.00;63287.88;5010543;28;20033;-76
2021/07/11 07:42:16;;;;;;;4.40;3.05;;;;;;;-140.79;100.00;63287.88;5012410;28;20032;-76
2021/07/11 07:44:42;;;;;;;5.90;3.25;;;;;;;-140.79;100.00;63287.88;5011430;28;20097;-77
2021/07/11 07:47:07;;;;;;;4.97;3.03;;;;;;;-140.79;100.00;63287.88;5012708;28;20021;-77
2021/07/11 07:49:33;;;;;;;5.10;3.20;;;;;;;-140.79;100.00;63287.88;5011198;28;20025;-78
2021/07/11 07:51:58;;;;;;;6.85;3.10;;;;;;;-140.79;100.00;63287.88;5013080;28;20084;-77
2021/07/11 07:54:24;;;;;;;4.32;2.97;;;;;;;-140.79;100.00;63287.88;4987069;28;20488;-77
2021/07/11 07:56:49;;;;;;;3.85;3.08;;;;;;;-140.79;100.00;63287.88;5014662;28;20792;-78
2021/07/11 07:59:15;;;;;;;5.07;3.00;;;;;;;-140.79;100.00;63287.88;5013885;28;20025;-77
2021/07/11 08:01:41;;;;;;;5.50;3.47;;;;;;;-140.79;100.00;63287.88;5011686;28;20033;-77
2021/07/11 08:04:07;;;;;;;5.88;3.40;;;;;;;-140.79;100.00;63287.88;5015269;28;20025;-76
2021/07/11 08:06:32;;;;;;;4.65;3.40;;;;;;;-140.79;100.00;63287.88;5027260;28;20065;-78
2021/07/11 08:08:58;;;;;;;6.15;3.10;;;;;;;-140.79;100.00;63287.88;5023300;28;20052;-78
2021/07/11 08:11:23;;;;;;;6.30;3.90;;;;;;;-140.79;100.00;63287.88;5025084;28;20025;-76
2021/07/11 08:13:49;;;;;;;5.55;3.45;;;;;;;-140.79;100.00;63287.88;5021081;28;20064;-76
2021/07/11 08:16:15;;;;;;;5.85;3.55;;;;;;;-140.79;100.00;63287.88;5026151;28;20025;-76
2021/07/11 08:18:40;;;;;;;4.80;3.38;;;;;;;-140.79;100.00;63287.88;5019042;28;20032;-76
2021/07/11 08:21:05;;;;;;;6.28;3.60;;;;;;;-140.79;100.00;63287.88;5027460;28;20032;-77
2021/07/11 08:23:31;;;;;;;5.47;3.10;;;;;;;-140.79;100.00;63287.88;5018009;28;20029;-77
2021/07/11 08:25:56;;;;;;;4.78;2.90;;;;;;;-140.79;100.00;63287.88;5027705;28;20393;-76
2021/07/11 08:28:22;;;;;;;5.85;3.60;;;;;;;-140.79;100.00;63287.88;5019245;28;20033;-75
2021/07/11 08:30:48;;;;;;;6.47;3.30;;;;;;;-140.79;100.00;63287.88;5027725;28;20037;-76
2021/07/11 08:33:13;;;;;;;4.03;3.30;;;;;;;-140.79;100.00;63287.88;5021299;28;20408;-76
2021/07/11 08:35:39;;;;;;;3.83;2.80;;;;;;;-140.79;100.00;63287.88;5026783;28;20508;-76
2021/07/11 08:38:04;;;;;;;5.03;2.95;;;;;;;-140.79;100.00;63287.88;5024255;28;20116;-76
2021/07/11 08:40:32;;;;;;;5.38;3.03;;;;;;;-140.79;100.00;63287.88;5022998;28;20045;-77
2021/07/11 08:42:58;;;;;;;6.03;2.95;;;;;;;-140.79;100.00;63287.88;5028153;28;20083;-76
2021/07/11 08:45:23;;;;;;;7.43;2.90;;;;;;;-140.79;100.00;63287.88;5022593;28;20030;-76
2021/07/11 08:47:49;;;;;;;6.03;3.30;;;;;;;-140.79;100.00;63287.88;5026119;28;20496;-76
2021/07/11 08:50:14;;;;;;;8.23;3.25;;;;;;;-140.79;100.00;63287.88;5014176;28;20555;-76
2021/07/11 08:52:40;;;;;;;4.38;2.92;;;;;;;-140.79;100.00;63287.88;5009983;28;20108;-76
2021/07/11 08:55:17;;;;;;;4.25;2.60;;;;;;;-140.79;100.00;63287.88;5014184;28;20049;-76
2021/07/11 08:58:03;;;;;;;3.83;2.47;;;;;;;-140.79;100.00;63287.88;5018435;28;20038;-76
2021/07/11 09:00:30;;;;;;;7.05;3.10;;;;;;;-140.79;100.00;63287.88;5009540;28;20041;-87
2021/07/11 09:02:55;;;;;;;4.82;3.15;;;;;;;-140.79;100.00;63287.88;5020319;28;20041;-86
2021/07/11 09:05:28;;;;;;;5.18;2.80;;;;;;;-140.79;100.00;63287.88;5029084;28;20077;-80
2021/07/11 09:08:01;;;;;;;4.55;2.95;;;;;;;-140.79;100.00;63287.88;4994711;28;20036;-83
2021/07/11 09:10:42;;;;;;;4.18;3.00;;;;;;;-140.79;100.00;63287.88;5027860;28;20377;-84
2021/07/11 09:13:09;;;;;;;5.43;3.00;;;;;;;-140.79;100.00;63287.88;5029312;28;20048;-82
2021/07/11 09:15:35;;;;;;;4.30;2.60;;;;;;;-140.79;100.00;63287.88;5030223;28;20048;-80
2021/07/11 09:18:01;;;;;;;4.03;2.78;;;;;;;-140.79;100.00;63287.88;5025203;28;20025;-80
2021/07/11 09:20:27;;;;;;;4.30;2.22;;;;;;;-140.79;100.00;63287.88;5029835;28;20032;-78
2021/07/11 09:23:02;;;;;;;4.30;2.97;;;;;;;-140.79;100.00;63287.88;5027760;28;20044;-75
2021/07/11 09:25:28;;;;;;;3.08;2.65;;;;;;;-140.79;100.00;63287.88;5027627;28;20040;-80
2021/07/11 09:27:54;;;;;;;3.53;2.67;;;;;;;-140.79;100.00;63287.88;5027475;28;20423;-77
2021/07/11 09:30:19;;;;;;;4.07;2.53;;;;;;;-140.79;100.00;63287.88;5029902;28;20034;-79
2021/07/11 09:32:45;;;;;;;2.67;2.40;;;;;;;-140.79;100.00;63287.88;5030742;28;20021;-79
2021/07/11 09:35:15;;;;;;;4.10;2.67;;;;;;;-140.79;100.00;63287.88;5025141;28;20033;-85
2021/07/11 09:37:44;;;;;;;3.78;2.60;;;;;;;-140.79;100.00;63287.88;5028877;28;20064;-85
2021/07/11 09:40:10;;;;;;;3.00;2.40;;;;;;;-140.79;100.00;63287.88;5027235;28;20757;-81
2021/07/11 09:42:40;;;;;;;3.75;2.95;;;;;;;-140.79;100.00;63287.88;5031787;28;20037;-87
2021/07/11 09:45:13;;;;;;;3.50;2.58;;;;;;;-140.79;100.00;63287.88;5028770;28;20032;-80
2021/07/11 09:47:39;;;;;;;3.53;2.47;;;;;;;-140.79;100.00;63287.88;5030176;28;20044;-82
2021/07/11 09:50:06;;;;;;;4.82;2.85;;;;;;;-140.79;100.00;63287.88;5023981;28;20492;-81
2021/07/11 09:52:32;;;;;;;6.63;2.92;;;;;;;-140.79;100.00;63287.88;5022900;28;20072;-80
2021/07/11 09:55:06;;;;;;;5.05;2.60;;;;;;;-140.79;100.00;63287.88;5030133;28;20045;-76
2021/07/11 09:57:59;;;;;;;5.47;3.10;;;;;;;-140.79;100.00;63287.88;5028032;28;20029;-77
2021/07/11 10:00:30;;;;;;;4.25;2.72;;;;;;;-140.79;100.00;63287.88;5021254;28;20516;-79
2021/07/11 10:03:10;;;;;;;3.17;2.78;;;;;;;-140.79;100.00;63287.88;5028136;28;20021;-85
2021/07/11 10:05:35;;;;;;;4.68;2.70;;;;;;;-140.79;100.00;63287.88;5021847;28;20046;-81
2021/07/11 10:08:01;;;;;;;3.38;2.42;;;;;;;-140.79;100.00;63287.88;5025314;28;20059;-80
2021/07/11 10:10:28;;;;;;;4.40;2.60;;;;;;;-140.79;100.00;63287.88;5028603;28;20037;-79
2021/07/11 10:12:53;;;;;;;3.78;2.58;;;;;;;-140.79;100.00;63287.88;5029058;28;20029;-80
2021/07/11 10:15:20;;;;;;;4.13;2.60;;;;;;;-140.79;100.00;63287.88;5030192;28;20306;-76
2021/07/11 10:18:01;;;;;;;4.30;2.85;;;;;;;-140.79;100.00;63287.88;5026886;28;20423;-75
2021/07/11 10:20:35;;;;;;;4.45;2.70;;;;;;;-140.79;100.00;63287.88;5026785;28;20049;-76
2021/07/11 10:23:00;;;;;;;4.45;3.15;;;;;;;-140.79;100.00;63287.88;5026122;28;20155;-83
2021/07/11 10:25:27;;;;;;;4.05;2.50;;;;;;;-140.79;100.00;63287.88;5029510;28;20576;-76
2021/07/11 10:28:14;;;;;;;4.55;2.83;;;;;;;-140.79;100.00;63287.88;5027235;28;20029;-74
2021/07/11 10:30:44;;;;;;;4.13;2.50;;;;;;;-140.79;100.00;63287.88;5027332;28;20100;-75
2021/07/11 10:33:12;;;;;;;3.55;2.72;;;;;;;-140.79;100.00;63287.88;5026111;28;20561;-75
2021/07/11 10:36:12;;;;;;;4.45;2.85;;;;;;;-140.79;100.00;63287.88;5026670;28;20114;-74
2021/07/11 10:38:51;;;;;;;4.57;2.78;;;;;;;-140.79;100.00;63287.88;4994518;28;20045;-76
2021/07/11 10:41:23;;;;;;;4.28;2.72;;;;;;;-140.79;100.00;63287.88;5026899;28;20535;-77
2021/07/11 10:44:08;;;;;;;4.18;2.55;;;;;;;-140.79;100.00;63287.88;5026110;28;20259;-76
2021/07/11 10:46:33;;;;;;;3.97;2.67;;;;;;;-140.79;100.00;63287.88;5026373;28;20036;-76
2021/07/11 10:49:15;;;;;;;3.58;2.53;;;;;;;-140.79;100.00;63287.88;5028207;28;20503;-73
2021/07/11 10:51:48;;;;;;;3.88;2.67;;;;;;;-140.79;100.00;63287.88;5012681;28;20025;-76
2021/07/11 10:54:37;;;;;;;3.47;2.35;;;;;;;-140.79;100.00;63287.88;5027210;28;20033;-77
2021/07/11 10:57:07;;;;;;;3.17;2.50;;;;;;;-140.79;100.00;63287.88;5024371;28;20033;-81
2021/07/11 10:59:40;;;;;;;4.88;2.47;;;;;;;-140.79;100.00;63287.88;5025673;28;20045;-79
2021/07/11 11:02:21;;;;;;;4.32;2.70;;;;;;;-140.79;100.00;63287.88;5032588;28;20518;-78
2021/07/11 11:04:57;;;;;;;3.33;2.58;;;;;;;-140.79;100.00;63287.88;5009409;28;20053;-77
2021/07/11 11:07:24;;;;;;;4.20;2.65;;;;;;;-140.79;100.00;63287.88;5025418;28;20073;-77
2021/07/11 11:09:50;;;;;;;5.22;2.72;;;;;;;-140.79;100.00;63287.88;5027241;28;20648;-79